CYDF

Deer Lake Airport

Deer Lake, Canada
METAR CYDF 212200Z VRB04KT 15SM BKN028 BKN080 02/M02 A2979 RMK SC6AC1 SLP089
Observed Flight Rules
Apr-21 @ 22:00 UTC (an hour ago) Marginal Visual Flight Rules
Wind Visibility Clouds
Variable at 4 knots 15 miles
  • Broken at 2,800' AGL
  • Broken at 8,000' AGL
Temperatures Readings
Current 2°C / 36°F
Dewpoint -2°C / 28°F
Humidity 75%
Altimeter 29.79" Hg
Pressure 1008.9 hPa
Elevation 22
METAR CYDF 212200Z VRB04KT 15SM BKN028 BKN080 02/M02 A2979 RMK SC6AC1 SLP089
Observed Flight Rules
Apr-21 @ 22:00 UTC
(an hour ago)
MVFR
Wind Visibility
Variable at 4 knots 15 miles
Clouds
  • Broken at 2,800' AGL
  • Broken at 8,000' AGL
Temperature Dewpoint
2°C / 36°F -2°C / 28°F
Humidity Altimeter Pressure
75% 29.79" Hg 1008.9 hPa